Wartburg, Illinois
Current Conditions -  °F | °C
As of 11:53 AM on Thursday 30 Oct 2014 (Local Time) from KCPS Reporting Station
Broken Clouds Broken Clouds  
Wind Chill: 55°   Ceiling: 10000
Heat Index: 55°   Visibility: 10mi
Dew Point: 43°   Wind: 9mph
Humidity: 64%   Direction: 140°SE
Pressure: 30.11"   Gusts: NA
Location:  38.3034°N, 90.1358°W
Report Text: KCPS 301653Z 14008KT 10SM SCT080 BKN100 BKN120 13/06 A3011 RMK AO2 RAE02 SLP199 P0000 T01280061
Loading
Personal Weather Stations






























Interactive Weather Map
Tropical Storm Tracking
New forecast layout! Learn more

10-Day Weather Forecast

Advertisements
Track Severe Weather on mobile